Time;durP1;ratioP1;P1;durP2;ratioP2;P2;SDS_P1;SDS_P2;PMS_P1;PMS_P2;Temp;Humidity;BMP_temperature;BMP_pressure;BME280_temperature;BME280_humidity;BME280_pressure;Samples;Min_cycle;Max_cycle;Signal;HPM_P1;HPM_P2
2023/06/09 00:01:35;;;;;;;12.53;6.70;;;19.90;99.90;;;;;;4943830;28;20211;-72
2023/06/09 00:04:06;;;;;;;6.70;6.10;;;19.90;99.80;;;;;;4948085;28;20204;-71
2023/06/09 00:06:33;;;;;;;5.87;5.27;;;19.80;99.90;;;;;;4949353;28;20258;-71
2023/06/09 00:08:58;;;;;;;10.37;6.20;;;19.80;99.90;;;;;;4950577;28;20202;-70
2023/06/09 00:11:25;;;;;;;6.23;5.70;;;19.70;99.90;;;;;;4949773;28;20733;-72
2023/06/09 00:13:51;;;;;;;10.80;5.77;;;19.80;99.90;;;;;;4948435;28;20202;-71
2023/06/09 00:16:16;;;;;;;7.17;6.47;;;19.80;99.90;;;;;;4950556;28;20820;-70
2023/06/09 00:18:43;;;;;;;8.27;6.13;;;19.60;99.90;;;;;;4955419;28;20218;-73
2023/06/09 00:21:09;;;;;;;8.20;5.37;;;19.60;99.90;;;;;;4950439;28;20300;-71
2023/06/09 00:23:35;;;;;;;8.13;6.43;;;19.50;99.90;;;;;;4948468;28;20264;-71
2023/06/09 00:26:00;;;;;;;7.33;6.23;;;19.50;99.90;;;;;;4949991;28;20202;-70
2023/06/09 00:28:26;;;;;;;8.93;6.47;;;19.60;99.90;;;;;;4945715;28;20201;-65
2023/06/09 00:30:51;;;;;;;6.53;5.93;;;19.50;99.90;;;;;;4953586;28;20623;-67
2023/06/09 00:33:17;;;;;;;8.33;6.63;;;19.40;99.90;;;;;;4945210;28;20212;-64
2023/06/09 00:35:43;;;;;;;8.20;5.83;;;19.40;99.90;;;;;;4946514;28;20198;-64
2023/06/09 00:38:09;;;;;;;8.17;6.60;;;19.40;99.90;;;;;;4941750;28;20568;-64
2023/06/09 00:40:34;;;;;;;10.43;7.43;;;19.40;99.90;;;;;;4952383;28;20251;-65
2023/06/09 00:43:00;;;;;;;9.07;6.23;;;19.50;99.90;;;;;;4959174;28;20274;-64
2023/06/09 00:45:25;;;;;;;7.10;6.40;;;19.60;99.90;;;;;;4959074;28;20212;-65
2023/06/09 00:47:51;;;;;;;6.73;6.10;;;19.50;99.90;;;;;;4959264;28;20216;-66
2023/06/09 00:50:19;;;;;;;13.90;6.53;;;19.40;99.90;;;;;;4959226;28;20213;-66
2023/06/09 00:52:46;;;;;;;8.97;6.27;;;19.50;99.90;;;;;;4958836;28;20289;-66
2023/06/09 00:55:12;;;;;;;7.43;6.73;;;19.50;99.90;;;;;;4957592;28;20209;-66
2023/06/09 00:57:39;;;;;;;7.17;6.57;;;19.40;99.90;;;;;;4959194;28;20221;-65
2023/06/09 01:00:06;;;;;;;8.07;6.60;;;19.30;99.90;;;;;;4958769;28;20574;-66
2023/06/09 01:02:32;;;;;;;8.03;7.20;;;19.30;99.90;;;;;;4958558;28;20567;-64
2023/06/09 01:04:58;;;;;;;8.63;6.60;;;19.30;99.90;;;;;;4958654;28;20216;-65
2023/06/09 01:07:40;;;;;;;9.23;6.70;;;19.30;99.90;;;;;;4958710;28;20262;-64
2023/06/09 01:10:28;;;;;;;6.90;5.77;;;19.20;99.90;;;;;;4949347;28;20224;-64
2023/06/09 01:13:31;;;;;;;7.53;6.40;;;19.10;99.90;;;;;;4950918;28;20197;-65
2023/06/09 01:16:08;;;;;;;7.77;6.57;;;19.10;99.90;;;;;;4946962;28;20675;-64
2023/06/09 01:18:35;;;;;;;10.37;7.67;;;19.10;99.90;;;;;;4945887;28;20778;-64
2023/06/09 01:21:14;;;;;;;9.10;7.10;;;19.00;99.90;;;;;;4948372;28;20551;-65
2023/06/09 01:24:00;;;;;;;13.00;7.10;;;19.00;99.90;;;;;;4941815;28;20230;-67
2023/06/09 01:26:27;;;;;;;7.47;6.33;;;18.90;99.90;;;;;;4944125;28;20216;-66
2023/06/09 01:28:55;;;;;;;8.77;6.03;;;18.90;99.90;;;;;;4948729;28;20228;-67
2023/06/09 01:31:21;;;;;;;8.37;7.03;;;18.90;99.90;;;;;;4948396;28;20210;-64
2023/06/09 01:33:46;;;;;;;8.87;7.30;;;18.90;99.90;;;;;;4948487;28;20280;-65
2023/06/09 01:36:13;;;;;;;10.97;6.67;;;18.80;99.90;;;;;;4947352;28;20207;-64
2023/06/09 01:38:39;;;;;;;8.10;6.90;;;18.80;99.90;;;;;;4940256;28;20229;-64
2023/06/09 01:41:05;;;;;;;7.87;6.70;;;18.80;99.90;;;;;;4949488;28;20241;-64
2023/06/09 01:43:30;;;;;;;11.27;7.73;;;18.70;99.90;;;;;;4949040;28;20235;-64
2023/06/09 01:45:56;;;;;;;10.23;7.37;;;18.70;99.90;;;;;;4949066;28;20200;-64
2023/06/09 01:49:00;;;;;;;7.50;6.80;;;18.70;99.90;;;;;;4946039;28;21178;-64
2023/06/09 01:51:48;;;;;;;8.27;6.97;;;18.80;99.90;;;;;;4943105;28;20664;-64
2023/06/09 01:54:20;;;;;;;9.23;7.20;;;18.80;99.90;;;;;;4945475;28;20204;-64
2023/06/09 01:56:51;;;;;;;10.33;7.80;;;18.70;99.90;;;;;;4945629;28;20254;-64
2023/06/09 01:59:24;;;;;;;10.73;7.20;;;18.70;99.90;;;;;;4957011;28;20199;-64
2023/06/09 02:01:51;;;;;;;7.53;6.80;;;18.70;99.90;;;;;;4957576;28;20203;-64
2023/06/09 02:04:19;;;;;;;12.50;6.93;;;18.70;99.90;;;;;;4957688;28;20197;-64
2023/06/09 02:06:47;;;;;;;9.30;8.17;;;18.60;99.90;;;;;;4957773;28;20285;-64
2023/06/09 02:09:13;;;;;;;10.03;6.57;;;18.60;99.90;;;;;;4957087;28;20299;-64
2023/06/09 02:11:39;;;;;;;11.40;7.83;;;18.50;99.90;;;;;;4958237;28;20294;-64
2023/06/09 02:14:04;;;;;;;8.97;7.47;;;18.50;99.90;;;;;;4957704;28;20296;-64
2023/06/09 02:16:30;;;;;;;7.77;7.03;;;18.50;99.90;;;;;;4948692;28;20267;-64
2023/06/09 02:18:56;;;;;;;10.77;7.17;;;18.40;99.90;;;;;;4955903;28;20650;-64
2023/06/09 02:21:21;;;;;;;8.63;7.73;;;18.40;99.90;;;;;;4956865;28;20634;-64
2023/06/09 02:23:47;;;;;;;9.40;7.67;;;18.40;99.90;;;;;;4957507;28;20235;-64
2023/06/09 02:26:12;;;;;;;10.67;8.10;;;18.40;99.90;;;;;;4955315;28;20210;-64
2023/06/09 02:28:38;;;;;;;10.07;7.93;;;18.40;99.90;;;;;;4955754;28;20687;-64
2023/06/09 02:31:05;;;;;;;10.23;7.67;;;18.40;99.90;;;;;;4954483;28;20205;-64
2023/06/09 02:33:30;;;;;;;10.10;6.90;;;18.40;99.90;;;;;;4946639;28;20211;-64
2023/06/09 02:35:57;;;;;;;10.77;8.23;;;18.40;99.90;;;;;;4958870;28;20263;-63
2023/06/09 02:38:24;;;;;;;10.77;7.80;;;18.40;99.90;;;;;;4957200;28;20218;-64
2023/06/09 02:40:49;;;;;;;8.87;7.67;;;18.30;99.90;;;;;;4957851;28;20331;-65
2023/06/09 02:43:15;;;;;;;8.93;7.97;;;18.20;99.90;;;;;;4957848;28;20544;-64
2023/06/09 02:45:41;;;;;;;9.10;8.23;;;18.20;99.90;;;;;;4958106;28;20655;-62
2023/06/09 02:48:06;;;;;;;9.87;8.20;;;18.10;99.90;;;;;;4955911;28;20263;-63
2023/06/09 02:50:32;;;;;;;10.53;7.67;;;18.10;99.90;;;;;;4957755;28;20214;-62
2023/06/09 02:52:57;;;;;;;9.07;7.97;;;18.00;99.90;;;;;;4957987;28;20202;-62
2023/06/09 02:55:23;;;;;;;9.57;8.33;;;18.00;99.90;;;;;;4953360;28;20252;-62
2023/06/09 02:57:49;;;;;;;9.57;7.47;;;18.00;99.90;;;;;;4956471;28;20214;-62
2023/06/09 03:00:15;;;;;;;8.90;8.00;;;18.00;99.90;;;;;;4952834;28;20257;-63
2023/06/09 03:02:41;;;;;;;8.87;7.77;;;18.10;99.90;;;;;;4960830;28;20203;-63
2023/06/09 03:05:08;;;;;;;11.10;7.43;;;18.10;99.90;;;;;;4961358;28;20678;-62
2023/06/09 03:07:33;;;;;;;9.03;7.50;;;18.10;99.90;;;;;;4961547;28;20210;-63
2023/06/09 03:09:59;;;;;;;9.47;8.40;;;18.00;99.90;;;;;;4956113;28;20805;-62
2023/06/09 03:12:25;;;;;;;9.73;8.37;;;17.90;99.90;;;;;;4956372;28;20603;-63
2023/06/09 03:14:51;;;;;;;12.23;7.97;;;17.90;99.90;;;;;;4958178;28;20290;-63
2023/06/09 03:17:17;;;;;;;11.03;7.70;;;17.80;99.90;;;;;;4957439;28;20223;-63
2023/06/09 03:19:42;;;;;;;8.77;7.60;;;17.70;99.90;;;;;;4961015;28;20210;-62
2023/06/09 03:22:08;;;;;;;10.50;8.30;;;17.70;99.90;;;;;;4960286;28;20595;-62
2023/06/09 03:24:34;;;;;;;14.63;8.57;;;17.60;99.90;;;;;;4960703;28;20229;-63
2023/06/09 03:27:00;;;;;;;10.90;8.47;;;17.60;99.90;;;;;;4958716;28;20207;-63
2023/06/09 03:29:28;;;;;;;8.90;7.53;;;17.70;99.90;;;;;;4960495;28;20221;-63
2023/06/09 03:31:53;;;;;;;9.53;8.37;;;17.70;99.90;;;;;;4957880;28;20219;-63
2023/06/09 03:34:20;;;;;;;10.00;8.20;;;17.70;99.90;;;;;;4948310;28;20881;-63
2023/06/09 03:36:46;;;;;;;9.97;8.47;;;17.70;99.90;;;;;;4950145;28;20275;-64
2023/06/09 03:39:11;;;;;;;10.10;8.50;;;17.70;99.90;;;;;;4951011;28;20667;-64
2023/06/09 03:41:36;;;;;;;17.40;8.87;;;17.70;99.90;;;;;;4949045;28;20677;-64
2023/06/09 03:44:02;;;;;;;10.50;7.77;;;17.70;99.90;;;;;;4953551;28;20225;-64
2023/06/09 03:46:27;;;;;;;13.40;9.13;;;17.70;99.90;;;;;;4948986;28;20207;-64
2023/06/09 03:48:53;;;;;;;9.73;8.13;;;17.70;99.90;;;;;;4951191;28;20578;-63
2023/06/09 03:51:20;;;;;;;9.30;8.03;;;17.60;99.90;;;;;;4931182;28;20496;-64
2023/06/09 03:53:45;;;;;;;13.80;8.43;;;17.60;99.90;;;;;;4950797;28;20219;-63
2023/06/09 03:56:11;;;;;;;13.10;9.03;;;17.60;99.90;;;;;;4950674;28;20736;-63
2023/06/09 03:58:37;;;;;;;14.77;9.43;;;17.70;99.90;;;;;;4950873;28;20917;-63
2023/06/09 04:01:02;;;;;;;9.83;8.47;;;17.70;99.90;;;;;;4950410;28;20670;-63
2023/06/09 04:03:28;;;;;;;13.20;9.20;;;17.70;99.90;;;;;;4953968;28;20206;-64
2023/06/09 04:05:53;;;;;;;10.83;7.73;;;17.70;99.90;;;;;;4949832;28;20668;-63
2023/06/09 04:08:19;;;;;;;8.37;7.33;;;17.70;99.90;;;;;;4946643;28;20203;-63
2023/06/09 04:10:44;;;;;;;11.20;8.17;;;17.70;99.90;;;;;;4950009;28;20210;-63
2023/06/09 04:13:11;;;;;;;8.70;7.80;;;17.60;99.90;;;;;;4950175;28;20213;-63
2023/06/09 04:15:37;;;;;;;8.90;7.23;;;17.60;99.90;;;;;;4950361;28;20652;-63
2023/06/09 04:18:03;;;;;;;9.03;7.03;;;17.60;99.90;;;;;;4948395;28;20229;-63
2023/06/09 04:20:29;;;;;;;11.30;8.37;;;17.70;99.90;;;;;;4949616;28;20264;-63
2023/06/09 04:22:55;;;;;;;8.27;7.40;;;17.80;99.90;;;;;;4949540;28;20258;-64
2023/06/09 04:25:25;;;;;;;8.07;7.07;;;17.80;99.90;;;;;;4952670;28;20306;-64
2023/06/09 04:27:52;;;;;;;8.80;6.97;;;17.70;99.90;;;;;;4947780;28;20209;-64
2023/06/09 04:30:24;;;;;;;8.93;6.10;;;17.70;99.90;;;;;;4946001;28;20297;-64
2023/06/09 04:32:53;;;;;;;9.60;7.17;;;17.80;99.90;;;;;;4950079;28;20579;-64
2023/06/09 04:35:23;;;;;;;6.97;5.87;;;17.80;99.90;;;;;;4949775;28;20213;-64
2023/06/09 04:37:49;;;;;;;8.70;5.10;;;17.90;99.90;;;;;;4948803;28;20253;-64
2023/06/09 04:40:22;;;;;;;6.70;6.00;;;17.80;99.90;;;;;;4949680;28;20216;-64
2023/06/09 04:42:52;;;;;;;6.33;5.73;;;17.90;99.90;;;;;;4949160;28;20836;-64
2023/06/09 04:45:25;;;;;;;8.87;7.03;;;18.00;99.90;;;;;;4948264;28;20293;-64
2023/06/09 04:47:50;;;;;;;10.43;5.97;;;18.10;99.90;;;;;;4943096;28;20219;-64
2023/06/09 04:50:16;;;;;;;11.83;7.03;;;18.00;99.90;;;;;;4933713;28;20213;-64
2023/06/09 04:52:44;;;;;;;6.83;5.63;;;18.10;99.90;;;;;;4950778;28;20207;-67
2023/06/09 04:55:11;;;;;;;10.80;5.57;;;18.20;99.90;;;;;;4947124;28;20212;-65
2023/06/09 04:57:38;;;;;;;6.07;5.20;;;18.20;99.50;;;;;;4948412;28;20215;-65
2023/06/09 05:00:15;;;;;;;6.07;4.57;;;18.20;98.60;;;;;;4948829;28;20197;-64
2023/06/09 05:02:42;;;;;;;6.03;4.53;;;18.20;97.50;;;;;;4948821;28;20209;-65
2023/06/09 05:05:08;;;;;;;6.33;5.73;;;18.40;97.30;;;;;;4948127;28;20200;-65
2023/06/09 05:07:35;;;;;;;6.13;4.70;;;18.40;96.60;;;;;;4949312;28;20238;-64
2023/06/09 05:10:01;;;;;;;9.70;4.63;;;18.50;96.90;;;;;;4949904;28;20215;-64
2023/06/09 05:12:26;;;;;;;5.30;4.70;;;18.50;96.70;;;;;;4948752;28;20211;-64
2023/06/09 05:14:52;;;;;;;5.00;4.33;;;18.60;96.30;;;;;;4949687;28;20253;-64
2023/06/09 05:17:17;;;;;;;5.70;3.80;;;18.60;93.20;;;;;;4947311;28;20230;-65
2023/06/09 05:19:43;;;;;;;5.07;4.00;;;18.90;90.80;;;;;;4947774;28;20724;-64
2023/06/09 05:22:08;;;;;;;6.67;3.93;;;19.00;89.50;;;;;;4949254;28;20266;-64
2023/06/09 05:24:34;;;;;;;5.63;3.93;;;19.00;87.00;;;;;;4952466;28;20227;-64
2023/06/09 05:26:59;;;;;;;4.87;4.17;;;19.00;87.00;;;;;;4943040;28;20218;-64
2023/06/09 05:29:25;;;;;;;4.47;3.77;;;19.20;84.30;;;;;;4952933;28;20226;-64
2023/06/09 05:31:50;;;;;;;5.30;3.37;;;19.30;83.10;;;;;;4946084;28;20221;-64
2023/06/09 05:34:16;;;;;;;4.50;4.00;;;19.30;82.70;;;;;;4949763;28;21112;-65
2023/06/09 05:36:41;;;;;;;5.67;4.20;;;19.30;80.00;;;;;;4949555;28;20208;-65
2023/06/09 05:39:08;;;;;;;7.13;3.70;;;19.40;80.00;;;;;;4949191;28;20292;-65
2023/06/09 05:41:34;;;;;;;4.17;3.60;;;19.50;78.40;;;;;;4947193;28;20300;-65
2023/06/09 05:43:59;;;;;;;6.47;3.83;;;19.60;79.20;;;;;;4947692;28;20303;-64
2023/06/09 05:46:25;;;;;;;6.93;3.70;;;19.70;78.50;;;;;;4948262;28;20227;-63
2023/06/09 05:48:51;;;;;;;4.10;3.47;;;19.80;77.20;;;;;;4952642;28;20236;-63
2023/06/09 05:51:18;;;;;;;5.67;4.33;;;19.70;78.10;;;;;;4947739;28;20736;-65
2023/06/09 05:53:43;;;;;;;4.33;3.53;;;19.70;79.20;;;;;;4940026;28;20555;-65
2023/06/09 05:56:09;;;;;;;5.37;3.93;;;19.70;78.20;;;;;;4951105;28;20390;-63
2023/06/09 05:58:36;;;;;;;5.47;3.60;;;19.90;76.40;;;;;;4957875;28;21008;-64
2023/06/09 06:01:03;;;;;;;4.33;3.63;;;19.90;76.60;;;;;;4957964;28;20207;-65
2023/06/09 06:03:28;;;;;;;3.43;2.97;;;20.00;76.90;;;;;;4952186;28;20251;-65
2023/06/09 06:05:54;;;;;;;5.67;3.50;;;20.10;75.30;;;;;;4944300;28;20192;-64
2023/06/09 06:08:20;;;;;;;3.37;3.07;;;20.20;73.70;;;;;;4957704;28;20475;-64
2023/06/09 06:10:45;;;;;;;5.57;3.80;;;20.30;74.00;;;;;;4948845;28;20288;-65
2023/06/09 06:13:12;;;;;;;3.90;3.23;;;20.30;72.30;;;;;;4958051;28;20308;-64
2023/06/09 06:15:37;;;;;;;3.50;3.20;;;20.40;71.70;;;;;;4956039;28;20271;-64
2023/06/09 06:18:03;;;;;;;4.30;3.60;;;20.40;71.80;;;;;;4957800;28;20225;-64
2023/06/09 06:20:29;;;;;;;7.57;3.33;;;20.50;72.60;;;;;;4955426;28;20214;-64
2023/06/09 06:22:54;;;;;;;5.00;3.47;;;20.60;73.20;;;;;;4955215;28;20251;-63
2023/06/09 06:25:21;;;;;;;5.83;3.60;;;20.70;71.40;;;;;;4957648;28;20328;-63
2023/06/09 06:27:46;;;;;;;3.93;3.57;;;20.70;70.00;;;;;;4955534;28;20208;-66
2023/06/09 06:30:13;;;;;;;5.60;3.43;;;20.80;69.90;;;;;;4957646;28;20259;-63
2023/06/09 06:32:47;;;;;;;4.70;3.70;;;20.80;71.00;;;;;;4957159;28;21629;-67
2023/06/09 06:35:23;;;;;;;3.83;3.43;;;20.90;69.40;;;;;;4956327;28;20629;-64
2023/06/09 06:37:49;;;;;;;4.03;3.63;;;20.90;69.70;;;;;;4955387;28;20236;-64
2023/06/09 06:40:15;;;;;;;4.53;3.60;;;20.90;70.10;;;;;;4961791;28;20189;-64
2023/06/09 06:42:40;;;;;;;4.77;3.00;;;21.10;67.80;;;;;;4961255;28;20201;-64
2023/06/09 06:45:06;;;;;;;3.50;2.77;;;21.20;68.40;;;;;;4961304;28;20211;-63
2023/06/09 06:47:31;;;;;;;9.77;4.03;;;21.10;69.40;;;;;;4959335;28;20202;-64
2023/06/09 06:49:57;;;;;;;3.60;3.30;;;21.20;68.80;;;;;;4961382;28;20201;-63
2023/06/09 06:52:22;;;;;;;5.67;3.47;;;21.30;67.70;;;;;;4961266;28;20500;-63
2023/06/09 06:54:48;;;;;;;4.50;3.50;;;21.30;69.20;;;;;;4961150;28;20742;-64
2023/06/09 06:57:14;;;;;;;5.10;3.37;;;21.30;68.80;;;;;;4941966;28;20209;-66
2023/06/09 06:59:39;;;;;;;3.93;3.53;;;21.40;68.30;;;;;;4960952;28;20288;-64
2023/06/09 07:02:05;;;;;;;4.17;3.50;;;21.50;67.60;;;;;;4956715;28;20694;-65
2023/06/09 07:04:31;;;;;;;5.57;3.97;;;21.50;67.30;;;;;;4960853;28;20197;-64
2023/06/09 07:06:56;;;;;;;4.80;4.27;;;21.70;66.80;;;;;;4961216;28;20636;-63
2023/06/09 07:09:22;;;;;;;4.33;3.90;;;21.70;67.70;;;;;;4960867;28;20316;-66
2023/06/09 07:11:48;;;;;;;9.50;3.87;;;21.60;67.40;;;;;;4955032;28;20265;-64
2023/06/09 07:14:13;;;;;;;5.57;4.03;;;21.70;66.30;;;;;;4960523;28;20193;-63
2023/06/09 07:16:41;;;;;;;4.53;3.90;;;21.80;67.60;;;;;;4943038;28;20225;-65
2023/06/09 07:19:09;;;;;;;4.17;3.70;;;21.90;66.40;;;;;;4959978;28;20564;-65
2023/06/09 07:21:36;;;;;;;6.20;4.10;;;22.10;65.90;;;;;;4937109;28;20219;-65
2023/06/09 07:24:03;;;;;;;9.50;3.97;;;22.20;66.10;;;;;;4960005;28;20735;-65
2023/06/09 07:26:29;;;;;;;5.80;4.03;;;22.20;66.30;;;;;;4960008;28;20216;-69
2023/06/09 07:28:55;;;;;;;5.20;4.70;;;22.20;66.70;;;;;;4960859;28;20205;-70
2023/06/09 07:31:20;;;;;;;6.67;3.73;;;22.20;67.00;;;;;;4959417;28;20220;-70
2023/06/09 07:33:47;;;;;;;3.57;3.27;;;22.30;64.80;;;;;;4957694;28;20209;-69
2023/06/09 07:36:13;;;;;;;5.57;3.90;;;22.40;63.80;;;;;;4959891;28;20493;-73
2023/06/09 07:38:39;;;;;;;5.63;3.77;;;22.40;65.30;;;;;;4955833;28;20217;-71
2023/06/09 07:41:05;;;;;;;4.17;3.77;;;22.40;64.70;;;;;;4960443;28;20271;-69
2023/06/09 07:43:31;;;;;;;5.80;4.00;;;22.50;64.60;;;;;;4958439;28;20678;-68
2023/06/09 07:45:56;;;;;;;5.73;3.70;;;22.60;64.50;;;;;;4960299;28;20208;-69
2023/06/09 07:48:22;;;;;;;4.30;3.37;;;22.50;64.80;;;;;;4954446;28;20297;-68
2023/06/09 07:50:48;;;;;;;6.70;5.13;;;22.50;66.90;;;;;;4943837;28;20513;-68
2023/06/09 07:53:13;;;;;;;6.43;3.93;;;22.50;64.20;;;;;;4958611;28;20205;-68
2023/06/09 07:55:39;;;;;;;5.87;4.87;;;22.60;65.30;;;;;;4959847;28;20202;-69
2023/06/09 07:58:05;;;;;;;6.05;4.18;;;22.60;64.20;;;;;;4952757;28;20277;-72
2023/06/09 08:00:30;;;;;;;9.75;4.07;;;22.70;66.40;;;;;;4960084;28;20253;-71
2023/06/09 08:03:03;;;;;;;8.43;4.27;;;22.80;66.00;;;;;;4959968;28;20258;-71
2023/06/09 08:05:30;;;;;;;10.82;5.22;;;22.80;66.20;;;;;;4959780;28;20205;-71
2023/06/09 08:07:57;;;;;;;6.10;4.38;;;22.90;66.80;;;;;;4958553;28;20198;-71
2023/06/09 08:10:22;;;;;;;5.40;3.92;;;23.00;67.80;;;;;;4960357;28;20201;-71
2023/06/09 08:12:50;;;;;;;5.93;4.10;;;23.00;69.00;;;;;;4960270;28;20233;-71
2023/06/09 08:15:15;;;;;;;6.45;3.65;;;23.20;66.20;;;;;;4959865;28;20300;-71
2023/06/09 08:17:41;;;;;;;4.78;3.30;;;23.30;62.20;;;;;;4959959;28;20289;-71
2023/06/09 08:20:07;;;;;;;4.53;3.90;;;23.30;60.60;;;;;;4957173;28;20186;-71
2023/06/09 08:22:32;;;;;;;5.30;3.20;;;23.20;60.00;;;;;;4937160;28;20681;-74
2023/06/09 08:25:00;;;;;;;7.32;3.30;;;23.20;60.80;;;;;;4960289;28;20729;-73
2023/06/09 08:27:26;;;;;;;9.50;4.35;;;23.20;69.80;;;;;;4959634;28;20284;-75
2023/06/09 08:29:51;;;;;;;6.80;3.80;;;22.90;69.70;;;;;;4959028;28;20301;-73
2023/06/09 08:32:17;;;;;;;3.97;3.67;;;22.30;73.00;;;;;;4957532;28;20277;-74
2023/06/09 08:34:43;;;;;;;5.07;4.33;;;21.80;78.00;;;;;;4955405;28;20210;-71
2023/06/09 08:37:09;;;;;;;4.37;3.57;;;21.30;92.60;;;;;;4959517;28;20234;-74
2023/06/09 08:39:34;;;;;;;6.97;3.97;;;21.10;93.80;;;;;;4946382;28;20196;-73
2023/06/09 08:42:06;;;;;;;10.17;4.07;;;20.70;96.30;;;;;;4944300;28;20381;-76
2023/06/09 08:44:38;;;;;;;6.07;3.73;;;20.50;93.20;;;;;;4925296;28;20205;-72
2023/06/09 08:47:04;;;;;;;5.17;3.50;;;20.40;93.90;;;;;;4945630;28;20886;-72
2023/06/09 08:49:29;;;;;;;5.70;4.03;;;20.40;90.30;;;;;;4942345;28;20268;-72
2023/06/09 08:51:58;;;;;;;4.73;3.67;;;20.60;89.20;;;;;;4944853;28;20239;-73
2023/06/09 08:54:24;;;;;;;6.73;4.03;;;21.00;80.40;;;;;;4945072;28;20209;-73
2023/06/09 08:56:51;;;;;;;5.23;3.73;;;21.10;82.40;;;;;;4958878;28;20217;-73
2023/06/09 08:59:18;;;;;;;4.53;3.80;;;21.00;85.90;;;;;;4959374;28;20206;-73
2023/06/09 09:01:47;;;;;;;8.23;3.73;;;20.70;93.40;;;;;;4953359;28;20713;-74
2023/06/09 09:04:12;;;;;;;4.70;4.17;;;20.50;90.70;;;;;;4926313;29;20663;-75
2023/06/09 09:06:39;;;;;;;7.87;3.63;;;20.60;91.80;;;;;;4943813;28;20253;-73
2023/06/09 09:09:04;;;;;;;9.63;5.07;;;20.70;89.20;;;;;;4943689;28;20324;-73
2023/06/09 09:11:31;;;;;;;6.07;4.40;;;20.90;92.60;;;;;;4958452;28;20679;-73
2023/06/09 09:13:56;;;;;;;6.33;4.10;;;20.90;87.90;;;;;;4958961;28;20288;-73
2023/06/09 09:16:31;;;;;;;7.40;5.03;;;21.10;92.70;;;;;;4958488;28;20204;-73
2023/06/09 09:18:57;;;;;;;6.63;5.07;;;21.20;97.80;;;;;;4958563;28;20296;-80
2023/06/09 09:21:23;;;;;;;7.03;4.93;;;21.30;97.70;;;;;;4940769;28;20288;-77
2023/06/09 09:23:57;;;;;;;11.03;6.10;;;21.10;99.90;;;;;;4958353;28;20243;-75
2023/06/09 09:26:28;;;;;;;6.20;4.63;;;20.80;99.90;;;;;;4957696;28;20195;-74
2023/06/09 09:28:55;;;;;;;7.23;5.83;;;20.90;94.50;;;;;;4948305;28;20720;-74
2023/06/09 09:31:29;;;;;;;6.73;5.27;;;20.80;96.40;;;;;;4958144;28;20209;-76
2023/06/09 09:33:55;;;;;;;10.67;4.63;;;20.90;97.20;;;;;;4949096;28;20219;-74
2023/06/09 09:36:21;;;;;;;7.27;4.80;;;20.80;94.60;;;;;;4951817;28;20274;-72
2023/06/09 09:38:46;;;;;;;8.07;4.37;;;21.30;91.70;;;;;;4937900;28;20221;-71
2023/06/09 09:41:15;;;;;;;5.70;4.57;;;21.30;93.30;;;;;;4958102;28;20714;-71
2023/06/09 09:43:41;;;;;;;6.77;4.47;;;21.30;95.30;;;;;;4956023;28;20207;-72
2023/06/09 09:46:07;;;;;;;6.43;4.10;;;21.30;96.70;;;;;;4958480;28;20204;-72
2023/06/09 09:48:37;;;;;;;6.87;5.57;;;21.70;93.50;;;;;;4958280;28;20208;-72
2023/06/09 09:51:04;;;;;;;7.60;5.07;;;21.70;96.50;;;;;;4957940;28;20295;-72
2023/06/09 09:53:30;;;;;;;7.40;4.70;;;21.90;91.90;;;;;;4958006;28;20213;-73
2023/06/09 09:55:58;;;;;;;4.97;4.40;;;22.30;93.90;;;;;;4956162;28;20209;-73
2023/06/09 09:58:34;;;;;;;7.50;5.37;;;22.40;91.20;;;;;;4957669;28;20229;-73
2023/06/09 10:01:10;;;;;;;14.57;8.20;;;22.90;90.00;;;;;;4957959;28;20611;-72
2023/06/09 10:03:38;;;;;;;5.10;4.60;;;22.80;93.40;;;;;;4941210;28;20996;-72
2023/06/09 10:06:11;;;;;;;8.73;5.43;;;23.00;90.70;;;;;;4942938;28;22966;-72
2023/06/09 10:08:40;;;;;;;8.57;4.93;;;23.50;90.30;;;;;;4950863;28;20206;-72
2023/06/09 10:11:07;;;;;;;6.67;4.13;;;23.90;89.70;;;;;;4950212;28;20233;-72
2023/06/09 10:13:33;;;;;;;5.03;4.30;;;23.80;88.60;;;;;;4954473;28;20232;-71
2023/06/09 10:15:59;;;;;;;8.43;4.93;;;23.60;88.60;;;;;;4952862;28;20194;-72
2023/06/09 10:18:25;;;;;;;4.75;4.35;;;23.90;87.50;;;;;;4943769;28;20237;-72
2023/06/09 10:20:52;;;;;;;6.30;5.53;;;24.10;84.40;;;;;;4944773;28;21010;-73
2023/06/09 10:23:18;;;;;;;5.13;4.53;;;24.30;84.50;;;;;;4943107;28;20847;-73
2023/06/09 10:25:49;;;;;;;5.72;4.47;;;24.10;88.30;;;;;;4943698;28;20277;-73
2023/06/09 10:28:18;;;;;;;4.47;3.83;;;24.70;83.00;;;;;;4941311;28;20585;-73
2023/06/09 10:30:45;;;;;;;5.07;4.38;;;25.00;78.60;;;;;;4943061;28;20318;-73
2023/06/09 10:33:18;;;;;;;5.32;4.22;;;25.10;80.60;;;;;;4942014;28;20295;-72
2023/06/09 10:35:47;;;;;;;6.53;4.10;;;24.90;80.00;;;;;;4957324;28;20210;-75
2023/06/09 10:38:22;;;;;;;5.40;4.63;;;24.90;77.70;;;;;;4957446;28;20372;-74
2023/06/09 10:41:08;;;;;;;9.15;5.78;;;25.10;79.20;;;;;;4956373;28;20719;-79
2023/06/09 10:43:47;;;;;;;30.85;17.90;;;25.10;82.70;;;;;;4958023;28;20213;-79
2023/06/09 10:46:13;;;;;;;4.82;4.28;;;24.80;89.40;;;;;;4934814;28;20218;-73
2023/06/09 10:48:48;;;;;;;5.28;4.75;;;25.00;78.10;;;;;;4943775;28;20975;-72
2023/06/09 10:51:37;;;;;;;6.95;4.88;;;25.20;76.10;;;;;;4941854;28;20213;-72
2023/06/09 10:54:12;;;;;;;6.60;4.10;;;25.60;75.70;;;;;;4941608;28;20393;-74
2023/06/09 10:56:47;;;;;;;4.90;4.38;;;25.60;72.80;;;;;;4942496;28;20208;-73
2023/06/09 10:59:25;;;;;;;5.43;4.90;;;25.80;71.80;;;;;;4940413;28;20206;-72
2023/06/09 11:02:00;;;;;;;5.30;3.92;;;25.90;68.50;;;;;;4949069;28;20212;-75
2023/06/09 11:04:44;;;;;;;4.65;4.25;;;26.20;68.50;;;;;;4928526;28;20201;-76
2023/06/09 11:07:14;;;;;;;7.55;4.35;;;26.20;71.00;;;;;;4949019;28;20200;-74
2023/06/09 11:10:00;;;;;;;4.65;4.25;;;26.00;69.70;;;;;;4944944;28;20198;-72
2023/06/09 11:12:42;;;;;;;4.80;4.05;;;26.10;69.40;;;;;;4917625;28;20307;-71
2023/06/09 11:15:09;;;;;;;4.70;4.30;;;26.20;70.90;;;;;;4944797;28;20214;-71
2023/06/09 11:17:39;;;;;;;4.72;4.22;;;26.40;67.80;;;;;;4943683;28;20216;-74
2023/06/09 11:20:08;;;;;;;6.47;4.07;;;26.40;68.90;;;;;;4944884;28;20197;-71
2023/06/09 11:22:58;;;;;;;4.88;4.40;;;26.80;65.90;;;;;;4950070;28;20256;-72
2023/06/09 11:25:26;;;;;;;4.78;4.28;;;26.60;66.20;;;;;;4940736;28;20214;-71
2023/06/09 11:27:54;;;;;;;7.82;4.20;;;26.60;65.60;;;;;;4949742;28;20752;-74
2023/06/09 11:30:27;;;;;;;5.05;4.07;;;26.40;65.70;;;;;;4942406;28;20841;-74
2023/06/09 11:32:55;;;;;;;5.85;3.90;;;26.70;63.60;;;;;;4940558;28;20265;-72
2023/06/09 11:35:39;;;;;;;5.30;3.83;;;26.90;65.50;;;;;;4953771;28;20285;-71
2023/06/09 11:38:09;;;;;;;7.75;3.83;;;27.00;63.60;;;;;;4945642;28;20226;-73
2023/06/09 11:40:37;;;;;;;4.40;4.00;;;27.10;65.70;;;;;;4954797;28;20571;-71
2023/06/09 11:43:07;;;;;;;5.72;4.65;;;27.30;63.40;;;;;;4955851;28;20197;-71
2023/06/09 11:45:34;;;;;;;4.20;3.90;;;27.30;63.30;;;;;;4951464;28;20257;-70
2023/06/09 11:48:00;;;;;;;4.82;4.10;;;27.70;61.30;;;;;;4950346;28;20284;-71
2023/06/09 11:50:35;;;;;;;5.72;4.30;;;27.60;62.90;;;;;;4950499;28;20233;-71
2023/06/09 11:53:05;;;;;;;5.30;3.88;;;27.50;62.80;;;;;;4948124;28;20220;-71
2023/06/09 11:55:31;;;;;;;6.07;4.25;;;27.40;62.20;;;;;;4948103;28;20213;-71
2023/06/09 11:57:57;;;;;;;5.22;3.85;;;27.50;63.70;;;;;;4942542;28;20249;-71
2023/06/09 12:00:28;;;;;;;6.15;4.78;;;27.80;61.40;;;;;;4946409;28;20240;-72
2023/06/09 12:02:55;;;;;;;4.75;4.35;;;28.00;61.50;;;;;;4926664;29;20233;-72
2023/06/09 12:05:22;;;;;;;4.75;3.80;;;28.30;61.60;;;;;;4948553;28;20309;-72
2023/06/09 12:07:49;;;;;;;6.30;4.15;;;28.60;59.20;;;;;;4949905;28;20894;-72
2023/06/09 12:10:23;;;;;;;4.25;3.63;;;28.90;57.30;;;;;;4953657;28;20195;-72
2023/06/09 12:12:54;;;;;;;6.97;3.75;;;28.70;56.70;;;;;;4955975;28;20197;-83
2023/06/09 12:15:22;;;;;;;4.70;4.30;;;28.90;56.30;;;;;;4954166;28;20197;-78
2023/06/09 12:17:49;;;;;;;5.20;4.22;;;29.20;56.20;;;;;;4926796;28;20622;-77
2023/06/09 12:20:32;;;;;;;4.63;4.10;;;29.30;55.40;;;;;;4940514;28;20186;-76
2023/06/09 12:23:01;;;;;;;6.90;4.90;;;29.60;54.00;;;;;;4941672;28;20712;-77
2023/06/09 12:25:31;;;;;;;4.40;4.05;;;29.80;54.10;;;;;;4944505;28;20217;-78
2023/06/09 12:28:23;;;;;;;6.45;5.80;;;30.00;53.00;;;;;;4942292;28;20206;-78
2023/06/09 12:31:10;;;;;;;5.70;4.22;;;30.10;52.30;;;;;;4938810;28;20206;-78
2023/06/09 12:33:36;;;;;;;3.90;3.55;;;30.20;51.80;;;;;;4945055;28;20209;-79
2023/06/09 12:36:07;;;;;;;3.47;3.15;;;30.30;50.10;;;;;;4949262;28;20225;-78
2023/06/09 12:38:40;;;;;;;6.57;4.63;;;30.30;51.10;;;;;;4942293;28;20225;-76
2023/06/09 12:41:10;;;;;;;4.93;4.50;;;30.50;49.70;;;;;;4943924;28;20198;-78
2023/06/09 12:43:48;;;;;;;3.95;3.65;;;30.60;48.80;;;;;;4944721;28;20202;-77
2023/06/09 12:46:19;;;;;;;5.35;3.90;;;30.90;47.40;;;;;;4943729;28;20201;-78
2023/06/09 12:48:57;;;;;;;10.30;6.85;;;30.80;48.10;;;;;;4944141;28;20241;-76
2023/06/09 12:51:23;;;;;;;4.13;3.75;;;31.10;48.10;;;;;;4940887;28;20202;-77